createdAt,value
2023-04-16T06:32:35.443Z,12.05
2023-04-16T06:35:02.013Z,9.38
2023-04-16T06:37:28.543Z,9.80
2023-04-16T06:39:55.313Z,11.18
2023-04-16T06:42:21.935Z,10.87
2023-04-16T06:44:48.454Z,11.00
2023-04-16T06:47:15.177Z,11.20
2023-04-16T06:49:41.957Z,11.55
2023-04-16T06:52:08.726Z,11.38
2023-04-16T06:54:35.377Z,10.20
2023-04-16T06:57:01.938Z,11.80
2023-04-16T06:59:28.686Z,11.52
2023-04-16T07:01:55.974Z,10.00
2023-04-16T07:04:23.895Z,10.73
2023-04-16T07:06:51.784Z,11.87
2023-04-16T07:09:18.386Z,11.13
2023-04-16T07:11:45.477Z,10.18
2023-04-16T07:14:12.138Z,9.43
2023-04-16T07:16:38.765Z,10.45
2023-04-16T07:19:05.305Z,9.60
2023-04-16T07:21:31.927Z,9.38
2023-04-16T07:23:58.445Z,9.40
2023-04-16T07:26:24.994Z,10.32
2023-04-16T07:28:51.705Z,7.80
2023-04-16T07:31:18.922Z,10.13
2023-04-16T07:33:45.605Z,9.95
2023-04-16T07:36:12.410Z,9.00
2023-04-16T07:38:38.962Z,9.55
2023-04-16T07:41:05.752Z,9.45
2023-04-16T07:43:32.820Z,10.30
2023-04-16T07:45:59.631Z,10.70
2023-04-16T07:48:26.455Z,9.68
2023-04-16T07:50:53.073Z,10.38
2023-04-16T07:53:19.740Z,10.13
2023-04-16T07:55:46.382Z,9.50
2023-04-16T07:58:12.944Z,9.63
2023-04-16T08:00:40.088Z,9.20
2023-04-16T08:03:07.131Z,10.05
2023-04-16T08:05:33.748Z,10.02
2023-04-16T08:08:00.347Z,9.67
2023-04-16T08:10:27.572Z,9.70
2023-04-16T08:12:54.366Z,10.10
2023-04-16T08:15:21.152Z,9.75
2023-04-16T08:17:47.971Z,10.15
2023-04-16T08:20:17.616Z,9.37
2023-04-16T08:22:47.274Z,9.57
2023-04-16T08:25:14.441Z,9.90
2023-04-16T08:27:41.559Z,10.73
2023-04-16T08:30:08.475Z,10.18
2023-04-16T08:32:35.096Z,10.63
2023-04-16T08:35:01.686Z,11.02
2023-04-16T08:37:28.314Z,9.38
2023-04-16T08:39:54.824Z,9.55
2023-04-16T08:42:32.608Z,10.57
2023-04-16T08:45:16.855Z,10.47
2023-04-16T08:47:49.047Z,10.20
2023-04-16T08:50:17.782Z,10.85
2023-04-16T08:52:52.292Z,10.25
2023-04-16T08:55:23.724Z,11.07
2023-04-16T08:57:59.570Z,11.03
2023-04-16T09:00:26.900Z,10.88
2023-04-16T09:02:54.252Z,9.98
2023-04-16T09:05:25.597Z,10.20
2023-04-16T09:07:54.491Z,9.13
2023-04-16T09:10:21.865Z,10.50
2023-04-16T09:12:49.246Z,9.85
2023-04-16T09:15:15.837Z,10.35
2023-04-16T09:17:42.426Z,10.65
2023-04-16T09:20:10.993Z,9.75
2023-04-16T09:22:38.488Z,9.90
2023-04-16T09:25:05.526Z,10.60
2023-04-16T09:27:32.313Z,10.50
2023-04-16T09:29:59.095Z,10.10
2023-04-16T09:32:27.699Z,9.38
2023-04-16T09:34:55.638Z,9.30
2023-04-16T09:37:22.177Z,8.98
2023-04-16T09:40:02.919Z,9.65
2023-04-16T09:42:39.681Z,9.77
2023-04-16T09:45:06.871Z,10.50
2023-04-16T09:47:44.536Z,11.73
2023-04-16T09:50:18.259Z,10.15
2023-04-16T09:52:48.755Z,9.95
2023-04-16T09:55:15.474Z,10.48
2023-04-16T09:57:42.117Z,10.32
2023-04-16T10:00:10.373Z,9.67
2023-04-16T10:02:41.806Z,10.80
2023-04-16T10:05:09.167Z,10.07
2023-04-16T10:07:37.672Z,10.65
2023-04-16T10:10:05.423Z,9.77
2023-04-16T10:12:32.841Z,10.70
2023-04-16T10:14:59.605Z,10.43
2023-04-16T10:17:27.364Z,10.52
2023-04-16T10:19:54.735Z,10.65
2023-04-16T10:22:21.418Z,10.45
2023-04-16T10:24:50.260Z,10.10
2023-04-16T10:27:17.233Z,10.85
2023-04-16T10:29:45.208Z,10.70
2023-04-16T10:32:12.396Z,11.35
2023-04-16T10:34:39.193Z,10.05
2023-04-16T10:37:05.812Z,10.70
2023-04-16T10:39:37.408Z,9.80
2023-04-16T10:42:11.874Z,10.68
2023-04-16T10:44:41.910Z,9.70
2023-04-16T10:47:14.575Z,9.43
2023-04-16T10:49:42.711Z,9.70
2023-04-16T10:52:19.530Z,9.73
2023-04-16T10:54:49.260Z,8.27
2023-04-16T10:57:17.888Z,9.45
2023-04-16T10:59:45.341Z,9.48
2023-04-16T11:02:17.921Z,11.00
2023-04-16T11:04:46.599Z,10.43
2023-04-16T11:07:19.234Z,10.48
2023-04-16T11:09:53.595Z,11.23
2023-04-16T11:12:33.090Z,10.27
2023-04-16T11:15:02.300Z,10.73
2023-04-16T11:17:51.774Z,9.80
2023-04-16T11:20:20.747Z,10.43
2023-04-16T11:22:52.045Z,10.48
2023-04-16T11:25:26.895Z,10.13
2023-04-16T11:27:53.899Z,10.60
2023-04-16T11:30:33.819Z,9.57
2023-04-16T11:33:10.306Z,8.65
2023-04-16T11:35:39.247Z,9.80
2023-04-16T11:38:07.131Z,10.50
2023-04-16T11:40:34.434Z,10.43
2023-04-16T11:43:27.074Z,11.15
2023-04-16T11:46:10.220Z,11.23
2023-04-16T11:48:51.009Z,11.95
2023-04-16T11:51:18.301Z,11.82
2023-04-16T11:53:48.697Z,13.43
2023-04-16T11:56:15.889Z,13.25
2023-04-16T11:58:43.394Z,13.13
2023-04-16T12:01:10.229Z,11.27
2023-04-16T12:03:44.351Z,11.15
2023-04-16T12:06:11.443Z,11.10
2023-04-16T12:08:38.188Z,11.98
2023-04-16T12:11:04.965Z,12.13
2023-04-16T12:13:31.589Z,12.40
2023-04-16T12:15:58.093Z,12.48
2023-04-16T12:18:29.227Z,12.57
2023-04-16T12:20:55.975Z,12.57
2023-04-16T12:23:33.893Z,13.90
2023-04-16T12:26:10.797Z,12.32
2023-04-16T12:28:38.685Z,12.52
2023-04-16T12:31:06.464Z,11.47
2023-04-16T12:33:33.136Z,12.40
2023-04-16T12:36:00.278Z,11.82
2023-04-16T12:38:27.782Z,12.23
2023-04-16T12:40:56.940Z,11.85
2023-04-16T12:43:24.141Z,11.93
2023-04-16T12:45:50.807Z,10.20
2023-04-16T12:48:17.369Z,11.75
2023-04-16T12:50:45.742Z,12.98
2023-04-16T12:53:12.378Z,12.63
2023-04-16T12:55:39.024Z,12.17
2023-04-16T12:58:05.764Z,11.13
2023-04-16T13:00:32.818Z,11.50
2023-04-16T13:02:59.422Z,10.93
2023-04-16T13:05:26.691Z,12.23
2023-04-16T13:07:54.091Z,13.00
2023-04-16T13:10:21.949Z,11.27
2023-04-16T13:12:49.020Z,11.55
2023-04-16T13:15:15.803Z,11.40
2023-04-16T13:17:42.362Z,11.82
2023-04-16T13:20:09.565Z,11.07
2023-04-16T13:22:36.218Z,12.07
2023-04-16T13:25:02.884Z,11.63
2023-04-16T13:27:31.212Z,12.57
2023-04-16T13:29:57.805Z,11.90
2023-04-16T13:32:24.485Z,12.07
2023-04-16T13:34:51.105Z,12.48
2023-04-16T13:37:17.699Z,10.65
2023-04-16T13:39:45.181Z,10.50
2023-04-16T13:42:11.785Z,9.50
2023-04-16T13:44:38.309Z,10.23
2023-04-16T13:47:05.011Z,10.77
2023-04-16T13:49:35.489Z,10.80
2023-04-16T13:52:02.465Z,10.93
2023-04-16T13:54:29.026Z,10.27
2023-04-16T13:56:56.189Z,11.30
2023-04-16T13:59:22.804Z,11.65
2023-04-16T14:01:51.795Z,12.50
2023-04-16T14:04:19.295Z,11.75
2023-04-16T14:06:46.001Z,11.88
2023-04-16T14:09:12.906Z,11.97
2023-04-16T14:11:39.731Z,12.32
2023-04-16T14:14:06.530Z,12.27
2023-04-16T14:16:34.101Z,12.13
2023-04-16T14:19:01.184Z,11.43
2023-04-16T14:21:27.853Z,12.47
2023-04-16T14:23:54.386Z,11.63
2023-04-16T14:26:21.146Z,11.45
2023-04-16T14:28:47.878Z,11.48
2023-04-16T14:31:14.624Z,11.40
2023-04-16T14:33:42.259Z,11.17
2023-04-16T14:36:08.979Z,11.57
2023-04-16T14:38:35.916Z,10.35
2023-04-16T14:41:02.634Z,11.75
2023-04-16T14:43:29.303Z,11.02
2023-04-16T14:45:57.126Z,10.50
2023-04-16T14:48:23.848Z,11.43
2023-04-16T14:50:50.658Z,11.40
2023-04-16T14:53:17.790Z,11.23
2023-04-16T14:55:44.525Z,12.90
2023-04-16T14:58:11.033Z,11.47
2023-04-16T15:00:37.665Z,12.65
2023-04-16T15:03:05.339Z,11.73
2023-04-16T15:05:32.091Z,13.65
2023-04-16T15:07:58.688Z,13.18
2023-04-16T15:10:25.318Z,13.07
2023-04-16T15:12:52.051Z,12.43
2023-04-16T15:15:18.834Z,13.30
2023-04-16T15:17:45.753Z,13.70
2023-04-16T15:20:12.930Z,13.23
2023-04-16T15:22:40.623Z,13.33
2023-04-16T15:25:07.843Z,13.07
2023-04-16T15:27:34.746Z,13.65
2023-04-16T15:30:01.348Z,13.52
2023-04-16T15:32:28.040Z,14.52
2023-04-16T15:34:54.602Z,15.00
2023-04-16T15:37:21.164Z,11.95
2023-04-16T15:39:48.194Z,14.63
2023-04-16T15:42:14.757Z,14.55
2023-04-16T15:44:41.336Z,13.57
2023-04-16T15:47:08.729Z,13.90
2023-04-16T15:49:36.055Z,14.23
2023-04-16T15:52:03.102Z,16.35
2023-04-16T15:54:30.743Z,14.10
2023-04-16T15:56:58.751Z,13.98
2023-04-16T15:59:28.448Z,14.50
2023-04-16T16:01:55.106Z,14.75
2023-04-16T16:04:22.981Z,15.05
2023-04-16T16:06:50.504Z,15.45
2023-04-16T16:09:17.295Z,16.65
2023-04-16T16:11:43.989Z,17.43
2023-04-16T16:14:10.986Z,16.48
2023-04-16T16:16:37.935Z,16.17
2023-04-16T16:19:04.740Z,15.38
2023-04-16T16:21:32.560Z,16.75
2023-04-16T16:23:59.149Z,16.30
2023-04-16T16:26:25.706Z,15.98
2023-04-16T16:28:52.264Z,14.30
2023-04-16T16:31:19.031Z,14.38
2023-04-16T16:33:45.721Z,13.90
2023-04-16T16:36:12.488Z,14.37
2023-04-16T16:38:42.631Z,15.90
2023-04-16T16:41:09.473Z,15.88
2023-04-16T16:43:38.948Z,13.88
2023-04-16T16:46:07.430Z,15.70
2023-04-16T16:48:34.289Z,14.33
2023-04-16T16:51:01.256Z,15.30
2023-04-16T16:53:28.184Z,15.10
2023-04-16T16:55:54.719Z,15.65
2023-04-16T16:58:21.283Z,14.20
2023-04-16T17:00:47.874Z,14.40
2023-04-16T17:03:14.656Z,14.13
2023-04-16T17:05:41.628Z,15.55
2023-04-16T17:08:08.155Z,16.27
2023-04-16T17:10:35.538Z,15.30
2023-04-16T17:13:02.350Z,16.37
2023-04-16T17:15:28.992Z,15.77
2023-04-16T17:17:55.887Z,16.17
2023-04-16T17:20:22.536Z,15.10
2023-04-16T17:22:49.202Z,17.13
2023-04-16T17:25:15.999Z,15.37
2023-04-16T17:27:42.640Z,17.27
2023-04-16T17:30:09.656Z,14.45
2023-04-16T17:32:36.526Z,15.45
2023-04-16T17:35:05.181Z,15.98
2023-04-16T17:37:31.923Z,13.67
2023-04-16T17:39:58.489Z,15.60
2023-04-16T17:42:25.057Z,16.85
2023-04-16T17:44:51.916Z,16.38
2023-04-16T17:47:18.446Z,16.48
2023-04-16T17:49:45.023Z,14.73
2023-04-16T17:52:11.596Z,16.17
2023-04-16T17:54:38.148Z,16.17
2023-04-16T17:57:04.699Z,14.90
2023-04-16T17:59:31.201Z,15.65
2023-04-16T18:01:57.955Z,15.97
2023-04-16T18:04:24.768Z,14.77
2023-04-16T18:06:51.441Z,14.25
2023-04-16T18:09:19.327Z,14.80
2023-04-16T18:11:46.042Z,15.38
2023-04-16T18:14:16.675Z,15.10
2023-04-16T18:16:43.309Z,14.25
2023-04-16T18:19:09.942Z,15.23
2023-04-16T18:21:36.650Z,15.63
2023-04-16T18:24:03.540Z,16.27
2023-04-16T18:26:30.353Z,16.23
2023-04-16T18:28:57.139Z,16.10
2023-04-16T18:31:23.771Z,15.60
2023-04-16T18:33:57.518Z,15.20
2023-04-16T18:36:27.152Z,15.70
2023-04-16T18:41:23.982Z,15.30
2023-04-16T18:43:50.621Z,16.45
2023-04-16T18:46:17.334Z,16.45
2023-04-16T18:48:45.209Z,15.68
2023-04-16T18:51:13.299Z,16.57
2023-04-16T18:53:44.315Z,17.13
2023-04-16T18:56:11.681Z,15.88
2023-04-16T18:58:38.422Z,16.58
2023-04-16T19:01:07.829Z,16.65
2023-04-16T19:03:34.787Z,16.87
2023-04-16T19:06:01.648Z,16.27
2023-04-16T19:08:28.282Z,16.05
2023-04-16T19:10:54.922Z,16.80
2023-04-16T19:13:22.148Z,18.00
2023-04-16T19:15:48.730Z,14.80
2023-04-16T19:18:15.566Z,14.90
2023-04-16T19:20:42.238Z,16.88
2023-04-16T19:23:09.239Z,17.10
2023-04-16T19:25:39.116Z,17.55
2023-04-16T19:28:05.854Z,18.23
2023-04-16T19:30:32.521Z,16.60
2023-04-16T19:33:00.202Z,17.80
2023-04-16T19:35:27.174Z,19.08
2023-04-16T19:37:56.667Z,17.08
2023-04-16T19:40:23.290Z,19.27
2023-04-16T19:42:49.946Z,19.33
2023-04-16T19:45:17.668Z,18.80
2023-04-16T19:47:44.880Z,18.92
2023-04-16T19:50:11.732Z,19.73
2023-04-16T19:52:39.123Z,18.97
2023-04-16T19:55:07.119Z,20.25
2023-04-16T19:57:33.838Z,18.98
2023-04-16T20:00:00.590Z,19.80
2023-04-16T20:02:27.293Z,20.40
2023-04-16T20:04:54.070Z,19.13
2023-04-16T20:07:20.642Z,19.35
2023-04-16T20:09:47.246Z,20.52
2023-04-16T20:12:14.421Z,21.38
2023-04-16T20:14:41.945Z,20.63
2023-04-16T20:17:10.071Z,19.60
2023-04-16T20:19:39.985Z,19.23
2023-04-16T20:22:06.848Z,21.85
2023-04-16T20:24:34.328Z,20.40
2023-04-16T20:27:01.810Z,19.83
2023-04-16T20:29:28.377Z,19.70
2023-04-16T20:31:54.992Z,19.60
2023-04-16T20:34:21.572Z,20.40
2023-04-16T20:36:48.242Z,20.20
2023-04-16T20:39:20.185Z,20.13
2023-04-16T20:41:56.482Z,19.77
2023-04-16T20:44:26.421Z,20.65
2023-04-16T20:46:54.817Z,20.77
2023-04-16T20:49:21.637Z,20.77
2023-04-16T20:51:48.260Z,21.27
2023-04-16T20:54:14.841Z,21.00
2023-04-16T20:56:41.610Z,21.02
2023-04-16T20:59:08.441Z,20.52
2023-04-16T21:01:35.554Z,20.83
2023-04-16T21:04:02.556Z,19.70
2023-04-16T21:06:32.872Z,21.33
2023-04-16T21:08:59.450Z,20.85
2023-04-16T21:11:26.298Z,19.60
2023-04-16T21:13:52.841Z,20.85
2023-04-16T21:16:19.742Z,18.58
2023-04-16T21:18:46.484Z,20.17
2023-04-16T21:21:12.961Z,20.33
2023-04-16T21:23:39.464Z,20.67
2023-04-16T21:26:06.236Z,20.17
2023-04-16T21:28:32.943Z,19.73
2023-04-16T21:31:00.253Z,20.93
2023-04-16T21:33:26.817Z,20.70
2023-04-16T21:35:53.782Z,19.95
2023-04-16T21:38:21.482Z,20.55
2023-04-16T21:40:50.777Z,19.30
2023-04-16T21:43:17.893Z,19.80
2023-04-16T21:45:44.462Z,19.70
2023-04-16T21:48:11.286Z,20.75
2023-04-16T21:50:38.087Z,20.95
2023-04-16T21:53:06.402Z,19.65
2023-04-16T21:55:34.749Z,21.00
2023-04-16T21:58:01.932Z,19.85
